Time;durP1;ratioP1;P1;durP2;ratioP2;P2;SDS_P1;SDS_P2;PMS_P1;PMS_P2;Temp;Humidity;BMP_temperature;BMP_pressure;BME280_temperature;BME280_humidity;BME280_pressure;Samples;Min_cycle;Max_cycle;Signal;HPM_P1;HPM_P2
2020/12/31 00:00:02;;;;;;;;;;;;;;;;;;2064571;28;45253;-62
2020/12/31 00:01:04;;;;;;;;;;;;;;;;;;2064305;28;43019;-63
2020/12/31 00:02:05;;;;;;;;;;;;;;;;;;2063977;28;44301;-63
2020/12/31 00:03:06;;;;;;;;;;;;;;;;;;2064284;28;44169;-63
2020/12/31 00:04:07;;;;;;;;;;;;;;;;;;2064041;28;44199;-64
2020/12/31 00:05:08;;;;;;;;;;;;;;;;;;2064249;28;43542;-63
2020/12/31 00:06:09;;;;;;;;;;;;;;;;;;2064201;28;44277;-63
2020/12/31 00:07:10;;;;;;;;;;;;;;;;;;2064345;28;45575;-63
2020/12/31 00:08:11;;;;;;;;;;;;;;;;;;2064206;28;44297;-63
2020/12/31 00:09:12;;;;;;;;;;;;;;;;;;2064682;28;43981;-63
2020/12/31 00:10:13;;;;;;;;;;;;;;;;;;2064009;28;45787;-63
2020/12/31 00:11:15;;;;;;;;;;;;;;;;;;2064138;28;45592;-63
2020/12/31 00:12:16;;;;;;;;;;;;;;;;;;2063932;28;45567;-63
2020/12/31 00:13:17;;;;;;;;;;;;;;;;;;2064812;28;44269;-64
2020/12/31 00:14:19;;;;;;;;;;;;;;;;;;2065110;28;44372;-63
2020/12/31 00:15:20;;;;;;;;;;;;;;;;;;2064124;28;45698;-63
2020/12/31 00:16:21;;;;;;;;;;;;;;;;;;2063825;28;44398;-64
2020/12/31 00:17:22;;;;;;;;;;;;;;;;;;2064685;28;44274;-63
2020/12/31 00:18:23;;;;;;;;;;;;;;;;;;2063773;28;44095;-63
2020/12/31 00:19:27;;;;;;;;;;;;;;;;;;2064145;28;42334;-63
2020/12/31 00:20:28;;;;;;;;;;;;;;;;;;2063831;28;45665;-63
2020/12/31 00:21:29;;;;;;;;;;;;;;;;;;2056261;28;44228;-63
2020/12/31 00:22:30;;;;;;;;;;;;;;;;;;2063708;28;44255;-63
2020/12/31 00:23:31;;;;;;;;;;;;;;;;;;2064130;28;44271;-63
2020/12/31 00:24:33;;;;;;;;;;;;;;;;;;2063821;28;45898;-67
2020/12/31 00:25:36;;;;;;;;;;;;;;;;;;2064342;28;45645;-63
2020/12/31 00:26:37;;;;;;;;;;;;;;;;;;2063841;28;44320;-62
2020/12/31 00:27:38;;;;;;;;;;;;;;;;;;2063715;28;44443;-63
2020/12/31 00:28:39;;;;;;;;;;;;;;;;;;2063827;28;45526;-62
2020/12/31 00:29:40;;;;;;;;;;;;;;;;;;2064386;28;44726;-64
2020/12/31 00:30:42;;;;;;;;;;;;;;;;;;2064323;28;44116;-64
2020/12/31 00:31:43;;;;;;;;;;;;;;;;;;2064165;28;42139;-64
2020/12/31 00:32:44;;;;;;;;;;;;;;;;;;2064062;28;44396;-64
2020/12/31 00:33:45;;;;;;;;;;;;;;;;;;2064034;28;44264;-64
2020/12/31 00:34:47;;;;;;;;;;;;;;;;;;2063961;28;45631;-64
2020/12/31 00:35:50;;;;;;;;;;;;;;;;;;2064663;28;45585;-64
2020/12/31 00:36:51;;;;;;;;;;;;;;;;;;2065372;28;45712;-64
2020/12/31 00:37:53;;;;;;;;;;;;;;;;;;2063931;28;45323;-64
2020/12/31 00:38:54;;;;;;;;;;;;;;;;;;2064097;28;46167;-63
2020/12/31 00:39:55;;;;;;;;;;;;;;;;;;2063412;28;41823;-64
2020/12/31 00:40:58;;;;;;;;;;;;;;;;;;2064077;28;44388;-63
2020/12/31 00:41:59;;;;;;;;;;;;;;;;;;2063645;28;44802;-63
2020/12/31 00:43:01;;;;;;;;;;;;;;;;;;2064035;28;43432;-63
2020/12/31 00:44:02;;;;;;;;;;;;;;;;;;2064464;28;46109;-63
2020/12/31 00:45:03;;;;;;;;;;;;;;;;;;2063968;28;44573;-63
2020/12/31 00:46:04;;;;;;;;;;;;;;;;;;2064258;28;44914;-63
2020/12/31 00:47:05;;;;;;;;;;;;;;;;;;2064803;28;46182;-64
2020/12/31 00:48:06;;;;;;;;;;;;;;;;;;2064047;28;44885;-63
2020/12/31 00:49:07;;;;;;;;;;;;;;;;;;2064778;28;44778;-63
2020/12/31 00:50:08;;;;;;;;;;;;;;;;;;2066059;28;44461;-64
2020/12/31 00:51:09;;;;;;;;;;;;;;;;;;2065770;28;44571;-63
2020/12/31 00:52:10;;;;;;;;;;;;;;;;;;2065175;28;44764;-63
2020/12/31 00:53:11;;;;;;;;;;;;;;;;;;2066037;28;46011;-63
2020/12/31 00:54:12;;;;;;;;;;;;;;;;;;2065708;28;44873;-63
2020/12/31 00:55:13;;;;;;;;;;;;;;;;;;2065178;28;44764;-63
2020/12/31 00:56:14;;;;;;;;;;;;;;;;;;2065274;28;44489;-63
2020/12/31 00:57:15;;;;;;;;;;;;;;;;;;2065902;28;44745;-63
2020/12/31 00:58:16;;;;;;;;;;;;;;;;;;2065616;28;43610;-63
2020/12/31 00:59:17;;;;;;;;;;;;;;;;;;2065932;28;44057;-63
2020/12/31 01:00:18;;;;;;;;;;;;;;;;;;2065720;28;44164;-63
2020/12/31 01:01:19;;;;;;;;;;;;;;;;;;2065604;28;44321;-63
2020/12/31 01:02:20;;;;;;;;;;;;;;;;;;2065135;28;42853;-63
2020/12/31 01:03:21;;;;;;;;;;;;;;;;;;2065787;28;43885;-63
2020/12/31 01:04:22;;;;;;;;;;;;;;;;;;2065627;28;45621;-63
2020/12/31 01:05:23;;;;;;;;;;;;;;;;;;2066133;28;44263;-63
2020/12/31 01:06:24;;;;;;;;;;;;;;;;;;2066397;28;42878;-63
2020/12/31 01:07:25;;;;;;;;;;;;;;;;;;2066136;28;43745;-63
2020/12/31 01:08:26;;;;;;;;;;;;;;;;;;2064881;28;44287;-63
2020/12/31 01:09:27;;;;;;;;;;;;;;;;;;2065112;28;44188;-63
2020/12/31 01:10:28;;;;;;;;;;;;;;;;;;2065534;28;42887;-63
2020/12/31 01:11:29;;;;;;;;;;;;;;;;;;2067002;28;44171;-63
2020/12/31 01:12:30;;;;;;;;;;;;;;;;;;2066281;28;44042;-63
2020/12/31 01:13:31;;;;;;;;;;;;;;;;;;2066594;28;45104;-63
2020/12/31 01:14:32;;;;;;;;;;;;;;;;;;2066581;28;44145;-63
2020/12/31 01:15:33;;;;;;;;;;;;;;;;;;2066138;28;44319;-63
2020/12/31 01:16:34;;;;;;;;;;;;;;;;;;2066790;28;45941;-62
2020/12/31 01:17:35;;;;;;;;;;;;;;;;;;2066338;28;43835;-63
2020/12/31 01:18:36;;;;;;;;;;;;;;;;;;2065895;28;44026;-63
2020/12/31 01:19:37;;;;;;;;;;;;;;;;;;2066291;28;43994;-62
2020/12/31 01:20:39;;;;;;;;;;;;;;;;;;2066691;28;44780;-62
2020/12/31 01:21:44;;;;;;;;;;;;;;;;;;2066870;28;42669;-63
2020/12/31 01:22:45;;;;;;;;;;;;;;;;;;2066473;28;45683;-63
2020/12/31 01:23:46;;;;;;;;;;;;;;;;;;2066807;28;44422;-63
2020/12/31 01:24:47;;;;;;;;;;;;;;;;;;2066013;28;44277;-63
2020/12/31 01:25:51;;;;;;;;;;;;;;;;;;2066068;28;43989;-63
2020/12/31 01:26:52;;;;;;;;;;;;;;;;;;2066997;28;44546;-63
2020/12/31 01:27:53;;;;;;;;;;;;;;;;;;2066171;28;45120;-63
2020/12/31 01:28:55;;;;;;;;;;;;;;;;;;2065720;28;42897;-63
2020/12/31 01:29:56;;;;;;;;;;;;;;;;;;2065353;28;44287;-63
2020/12/31 01:30:57;;;;;;;;;;;;;;;;;;2066626;28;43338;-63
2020/12/31 01:31:58;;;;;;;;;;;;;;;;;;2065354;28;44155;-63
2020/12/31 01:32:59;;;;;;;;;;;;;;;;;;2065872;28;44308;-63
2020/12/31 01:34:00;;;;;;;;;;;;;;;;;;2065190;28;45589;-63
2020/12/31 01:35:01;;;;;;;;;;;;;;;;;;2065446;28;44382;-63
2020/12/31 01:36:07;;;;;;;;;;;;;;;;;;2065572;28;45371;-63
2020/12/31 01:37:08;;;;;;;;;;;;;;;;;;2066222;28;43122;-64
2020/12/31 01:38:09;;;;;;;;;;;;;;;;;;2065009;28;43990;-64
2020/12/31 01:39:10;;;;;;;;;;;;;;;;;;2065172;28;44160;-63
2020/12/31 01:40:11;;;;;;;;;;;;;;;;;;2065855;28;47543;-63
2020/12/31 01:41:13;;;;;;;;;;;;;;;;;;2066426;28;45602;-63
2020/12/31 01:42:14;;;;;;;;;;;;;;;;;;2064871;28;44781;-63
2020/12/31 01:43:15;;;;;;;;;;;;;;;;;;2065724;28;44669;-63
2020/12/31 01:44:16;;;;;;;;;;;;;;;;;;2065558;28;46676;-63
2020/12/31 01:45:17;;;;;;;;;;;;;;;;;;2065110;28;44775;-64
2020/12/31 01:46:18;;;;;;;;;;;;;;;;;;2056903;28;46299;-63
2020/12/31 01:47:20;;;;;;;;;;;;;;;;;;2065083;28;44851;-63
2020/12/31 01:48:21;;;;;;;;;;;;;;;;;;2065451;28;44885;-64
2020/12/31 01:49:22;;;;;;;;;;;;;;;;;;2065743;28;44892;-64
2020/12/31 01:50:24;;;;;;;;;;;;;;;;;;2064979;28;44594;-63
2020/12/31 01:51:25;;;;;;;;;;;;;;;;;;2065316;28;46033;-64
2020/12/31 01:52:27;;;;;;;;;;;;;;;;;;2065606;28;44592;-63
2020/12/31 01:53:28;;;;;;;;;;;;;;;;;;2065951;28;44464;-63
2020/12/31 01:54:29;;;;;;;;;;;;;;;;;;2065246;28;44701;-63
2020/12/31 01:55:31;;;;;;;;;;;;;;;;;;2065245;28;46084;-63
2020/12/31 01:56:33;;;;;;;;;;;;;;;;;;2065147;28;46245;-63
2020/12/31 01:57:34;;;;;;;;;;;;;;;;;;2065242;28;44893;-63
2020/12/31 01:58:35;;;;;;;;;;;;;;;;;;2065695;28;44270;-63
2020/12/31 01:59:36;;;;;;;;;;;;;;;;;;2066076;28;45910;-63
2020/12/31 02:00:38;;;;;;;;;;;;;;;;;;2064867;28;44581;-63
2020/12/31 02:01:39;;;;;;;;;;;;;;;;;;2057275;28;44785;-64
2020/12/31 02:02:40;;;;;;;;;;;;;;;;;;2064755;28;46181;-63
2020/12/31 02:03:41;;;;;;;;;;;;;;;;;;2066459;28;45615;-64
2020/12/31 02:04:43;;;;;;;;;;;;;;;;;;2066310;28;43991;-64
2020/12/31 02:05:44;;;;;;;;;;;;;;;;;;2065971;28;43000;-64
2020/12/31 02:06:45;;;;;;;;;;;;;;;;;;2065607;28;42048;-64
2020/12/31 02:07:47;;;;;;;;;;;;;;;;;;2066051;28;44304;-64
2020/12/31 02:08:49;;;;;;;;;;;;;;;;;;2065139;28;43867;-64
2020/12/31 02:09:50;;;;;;;;;;;;;;;;;;2065397;28;44262;-64
2020/12/31 02:10:51;;;;;;;;;;;;;;;;;;2065753;28;44292;-64
2020/12/31 02:11:52;;;;;;;;;;;;;;;;;;2066211;28;44138;-63
2020/12/31 02:12:53;;;;;;;;;;;;;;;;;;2065553;28;43886;-64
2020/12/31 02:13:55;;;;;;;;;;;;;;;;;;2066533;28;44010;-64
2020/12/31 02:14:58;;;;;;;;;;;;;;;;;;2066813;28;44006;-64
2020/12/31 02:15:59;;;;;;;;;;;;;;;;;;2066832;28;46023;-64
2020/12/31 02:17:00;;;;;;;;;;;;;;;;;;2065533;28;44313;-64
2020/12/31 02:18:01;;;;;;;;;;;;;;;;;;2065248;28;46568;-64
2020/12/31 02:19:04;;;;;;;;;;;;;;;;;;2065995;28;43842;-64
2020/12/31 02:20:05;;;;;;;;;;;;;;;;;;2065178;28;45331;-63
2020/12/31 02:21:06;;;;;;;;;;;;;;;;;;2065715;28;44883;-64
2020/12/31 02:22:10;;;;;;;;;;;;;;;;;;2065687;28;44170;-63
2020/12/31 02:23:11;;;;;;;;;;;;;;;;;;2064842;28;42832;-63
2020/12/31 02:24:12;;;;;;;;;;;;;;;;;;2065550;28;44040;-62
2020/12/31 02:25:13;;;;;;;;;;;;;;;;;;2065858;28;45332;-64
2020/12/31 02:26:14;;;;;;;;;;;;;;;;;;2065882;28;45542;-64
2020/12/31 02:27:15;;;;;;;;;;;;;;;;;;2064940;28;44067;-64
2020/12/31 02:28:16;;;;;;;;;;;;;;;;;;2065050;28;42608;-63
2020/12/31 02:29:17;;;;;;;;;;;;;;;;;;2064483;28;44416;-64
2020/12/31 02:30:18;;;;;;;;;;;;;;;;;;2065156;28;44282;-64
2020/12/31 02:31:20;;;;;;;;;;;;;;;;;;2065016;28;44408;-63
2020/12/31 02:32:21;;;;;;;;;;;;;;;;;;2065211;28;44268;-63
2020/12/31 02:33:22;;;;;;;;;;;;;;;;;;2064958;28;47241;-63
2020/12/31 02:34:24;;;;;;;;;;;;;;;;;;2064894;28;45805;-64
2020/12/31 02:35:25;;;;;;;;;;;;;;;;;;2065441;28;44265;-64
2020/12/31 02:36:28;;;;;;;;;;;;;;;;;;2064688;28;44050;-64
2020/12/31 02:37:29;;;;;;;;;;;;;;;;;;2065042;28;44245;-63
2020/12/31 02:38:30;;;;;;;;;;;;;;;;;;2065436;28;43958;-63
2020/12/31 02:39:31;;;;;;;;;;;;;;;;;;2065507;28;45700;-64
2020/12/31 02:40:32;;;;;;;;;;;;;;;;;;2065400;28;44274;-64
2020/12/31 02:41:33;;;;;;;;;;;;;;;;;;2065866;28;43095;-64
2020/12/31 02:42:34;;;;;;;;;;;;;;;;;;2064935;28;43122;-64
2020/12/31 02:43:35;;;;;;;;;;;;;;;;;;2064768;28;44395;-63
2020/12/31 02:44:36;;;;;;;;;;;;;;;;;;2064545;28;45594;-63
2020/12/31 02:45:38;;;;;;;;;;;;;;;;;;2064726;28;44373;-63
2020/12/31 02:46:39;;;;;;;;;;;;;;;;;;2065476;28;44765;-63
2020/12/31 02:47:41;;;;;;;;;;;;;;;;;;2064744;28;46086;-64
2020/12/31 02:48:42;;;;;;;;;;;;;;;;;;2064009;28;45114;-64
2020/12/31 02:49:43;;;;;;;;;;;;;;;;;;2064518;28;44773;-63
2020/12/31 02:50:44;;;;;;;;;;;;;;;;;;2065056;28;46125;-63
2020/12/31 02:51:45;;;;;;;;;;;;;;;;;;2064712;28;46193;-63
2020/12/31 02:52:46;;;;;;;;;;;;;;;;;;2056859;28;44829;-63
2020/12/31 02:53:48;;;;;;;;;;;;;;;;;;2064857;28;43935;-63
2020/12/31 02:54:49;;;;;;;;;;;;;;;;;;2065040;28;44408;-63
2020/12/31 02:55:50;;;;;;;;;;;;;;;;;;2065025;28;46150;-63
2020/12/31 02:56:51;;;;;;;;;;;;;;;;;;2064462;28;46067;-63
2020/12/31 02:57:52;;;;;;;;;;;;;;;;;;2065561;28;43982;-63
2020/12/31 02:58:53;;;;;;;;;;;;;;;;;;2064963;28;46178;-63
2020/12/31 02:59:54;;;;;;;;;;;;;;;;;;2064711;28;43894;-63
2020/12/31 03:00:55;;;;;;;;;;;;;;;;;;2064805;28;44682;-63
2020/12/31 03:01:56;;;;;;;;;;;;;;;;;;2065238;28;45028;-63
2020/12/31 03:02:57;;;;;;;;;;;;;;;;;;2065176;28;44878;-63
2020/12/31 03:03:58;;;;;;;;;;;;;;;;;;2065792;28;46258;-62
2020/12/31 03:04:59;;;;;;;;;;;;;;;;;;2065402;28;44607;-63
2020/12/31 03:06:01;;;;;;;;;;;;;;;;;;2065134;28;44876;-62
2020/12/31 03:07:02;;;;;;;;;;;;;;;;;;2064869;28;44695;-63
2020/12/31 03:08:03;;;;;;;;;;;;;;;;;;2065697;28;44740;-63
2020/12/31 03:09:04;;;;;;;;;;;;;;;;;;2065612;28;44768;-63
2020/12/31 03:10:05;;;;;;;;;;;;;;;;;;2065398;28;44991;-63
2020/12/31 03:11:08;;;;;;;;;;;;;;;;;;2065333;28;43236;-63
2020/12/31 03:12:09;;;;;;;;;;;;;;;;;;2065279;28;45400;-63
2020/12/31 03:13:10;;;;;;;;;;;;;;;;;;2064763;28;44073;-63
2020/12/31 03:14:12;;;;;;;;;;;;;;;;;;2056605;28;44305;-63
2020/12/31 03:15:14;;;;;;;;;;;;;;;;;;2064663;28;44092;-63
2020/12/31 03:16:15;;;;;;;;;;;;;;;;;;2064651;28;45877;-63
2020/12/31 03:17:16;;;;;;;;;;;;;;;;;;2064883;28;45826;-63
2020/12/31 03:18:17;;;;;;;;;;;;;;;;;;2064235;28;45571;-63
2020/12/31 03:19:18;;;;;;;;;;;;;;;;;;2064999;28;45337;-63
2020/12/31 03:20:19;;;;;;;;;;;;;;;;;;2064050;28;45178;-63
2020/12/31 03:21:20;;;;;;;;;;;;;;;;;;2064411;28;45590;-63
2020/12/31 03:22:21;;;;;;;;;;;;;;;;;;2064865;28;45595;-63
2020/12/31 03:23:22;;;;;;;;;;;;;;;;;;2064468;28;44158;-63
2020/12/31 03:24:23;;;;;;;;;;;;;;;;;;2064271;28;43375;-63
2020/12/31 03:25:24;;;;;;;;;;;;;;;;;;2064310;28;45292;-63
2020/12/31 03:26:25;;;;;;;;;;;;;;;;;;2065220;28;43471;-63
2020/12/31 03:27:26;;;;;;;;;;;;;;;;;;2064230;28;43754;-63
2020/12/31 03:28:27;;;;;;;;;;;;;;;;;;2063704;28;45470;-63
2020/12/31 03:29:29;;;;;;;;;;;;;;;;;;2064112;28;44171;-63
2020/12/31 03:30:30;;;;;;;;;;;;;;;;;;2064418;28;44377;-63
2020/12/31 03:31:31;;;;;;;;;;;;;;;;;;2065040;28;44406;-63
2020/12/31 03:32:32;;;;;;;;;;;;;;;;;;2063900;28;45311;-63
2020/12/31 03:33:33;;;;;;;;;;;;;;;;;;2056523;28;44464;-63
2020/12/31 03:34:34;;;;;;;;;;;;;;;;;;2063990;28;44867;-63
2020/12/31 03:35:35;;;;;;;;;;;;;;;;;;2064991;28;42264;-63
2020/12/31 03:36:36;;;;;;;;;;;;;;;;;;2064696;28;45338;-63
2020/12/31 03:37:37;;;;;;;;;;;;;;;;;;2064715;28;45690;-63
2020/12/31 03:38:38;;;;;;;;;;;;;;;;;;2064673;28;42975;-63
2020/12/31 03:39:40;;;;;;;;;;;;;;;;;;2064340;28;44230;-62
2020/12/31 03:40:41;;;;;;;;;;;;;;;;;;2064054;28;45201;-62
2020/12/31 03:41:43;;;;;;;;;;;;;;;;;;2064953;28;44138;-62
2020/12/31 03:42:44;;;;;;;;;;;;;;;;;;2064950;28;46649;-62
2020/12/31 03:43:45;;;;;;;;;;;;;;;;;;2064716;28;44249;-63
2020/12/31 03:44:46;;;;;;;;;;;;;;;;;;2064215;28;44104;-62
2020/12/31 03:45:47;;;;;;;;;;;;;;;;;;2065034;28;44275;-63
2020/12/31 03:46:48;;;;;;;;;;;;;;;;;;2064099;28;43801;-63
2020/12/31 03:47:49;;;;;;;;;;;;;;;;;;2063893;28;45719;-63
2020/12/31 03:48:50;;;;;;;;;;;;;;;;;;2063712;28;44378;-63
2020/12/31 03:49:51;;;;;;;;;;;;;;;;;;2063980;28;45698;-63
2020/12/31 03:50:52;;;;;;;;;;;;;;;;;;2064002;28;45309;-62
2020/12/31 03:51:53;;;;;;;;;;;;;;;;;;2064390;28;44384;-63
2020/12/31 03:52:54;;;;;;;;;;;;;;;;;;2064204;28;44774;-62
2020/12/31 03:53:55;;;;;;;;;;;;;;;;;;2065040;28;43187;-62
2020/12/31 03:54:56;;;;;;;;;;;;;;;;;;2064811;28;46174;-63
2020/12/31 03:55:57;;;;;;;;;;;;;;;;;;2064223;28;45484;-63
2020/12/31 03:56:58;;;;;;;;;;;;;;;;;;2064456;28;45083;-63
2020/12/31 03:57:59;;;;;;;;;;;;;;;;;;2064787;28;46180;-63
2020/12/31 03:59:00;;;;;;;;;;;;;;;;;;2064799;28;43299;-62
2020/12/31 04:00:02;;;;;;;;;;;;;;;;;;2065084;28;44881;-62
2020/12/31 04:01:03;;;;;;;;;;;;;;;;;;2064888;28;46160;-63
2020/12/31 04:02:04;;;;;;;;;;;;;;;;;;2065842;28;44602;-62
2020/12/31 04:03:05;;;;;;;;;;;;;;;;;;2065731;28;46073;-62
2020/12/31 04:04:06;;;;;;;;;;;;;;;;;;2065503;28;48144;-63
2020/12/31 04:05:08;;;;;;;;;;;;;;;;;;2065526;28;46052;-63
2020/12/31 04:06:09;;;;;;;;;;;;;;;;;;2065728;28;44763;-63
2020/12/31 04:07:09;;;;;;;;;;;;;;;;;;2066389;28;45044;-63
2020/12/31 04:08:11;;;;;;;;;;;;;;;;;;2066090;28;44407;-63
2020/12/31 04:09:12;;;;;;;;;;;;;;;;;;2065238;28;43516;-62
2020/12/31 04:10:13;;;;;;;;;;;;;;;;;;2065146;28;46120;-63
2020/12/31 04:11:14;;;;;;;;;;;;;;;;;;2066245;28;44309;-62
2020/12/31 04:12:15;;;;;;;;;;;;;;;;;;2065730;28;43613;-63
2020/12/31 04:13:16;;;;;;;;;;;;;;;;;;2066457;28;44772;-63
2020/12/31 04:14:17;;;;;;;;;;;;;;;;;;2066183;28;44257;-63
2020/12/31 04:15:18;;;;;;;;;;;;;;;;;;2065796;28;45299;-63
2020/12/31 04:16:19;;;;;;;;;;;;;;;;;;2065629;28;45295;-63
2020/12/31 04:17:20;;;;;;;;;;;;;;;;;;2065478;28;44273;-62
2020/12/31 04:18:21;;;;;;;;;;;;;;;;;;2065902;28;42314;-62
2020/12/31 04:19:22;;;;;;;;;;;;;;;;;;2065321;28;45249;-62
2020/12/31 04:20:23;;;;;;;;;;;;;;;;;;2065414;28;45548;-62
2020/12/31 04:21:24;;;;;;;;;;;;;;;;;;2066720;28;45188;-62
2020/12/31 04:22:27;;;;;;;;;;;;;;;;;;2066179;28;44266;-62
2020/12/31 04:23:28;;;;;;;;;;;;;;;;;;2066061;28;45481;-62
2020/12/31 04:24:29;;;;;;;;;;;;;;;;;;2066123;28;44190;-62
2020/12/31 04:25:30;;;;;;;;;;;;;;;;;;2065677;28;44900;-63
2020/12/31 04:26:31;;;;;;;;;;;;;;;;;;2065927;28;44666;-62
2020/12/31 04:27:32;;;;;;;;;;;;;;;;;;2066837;28;44202;-62
2020/12/31 04:28:33;;;;;;;;;;;;;;;;;;2065963;28;42684;-62
2020/12/31 04:29:34;;;;;;;;;;;;;;;;;;2065467;28;44281;-63
2020/12/31 04:30:35;;;;;;;;;;;;;;;;;;2066145;28;45103;-63
2020/12/31 04:31:36;;;;;;;;;;;;;;;;;;2065659;28;47610;-62
2020/12/31 04:32:37;;;;;;;;;;;;;;;;;;2065180;28;42489;-63
2020/12/31 04:33:39;;;;;;;;;;;;;;;;;;2065606;28;44013;-62
2020/12/31 04:34:40;;;;;;;;;;;;;;;;;;2065438;28;45865;-63
2020/12/31 04:35:42;;;;;;;;;;;;;;;;;;2065972;28;41354;-62
2020/12/31 04:36:43;;;;;;;;;;;;;;;;;;2065368;28;44075;-62
2020/12/31 04:37:44;;;;;;;;;;;;;;;;;;2065723;28;43375;-62
2020/12/31 04:38:45;;;;;;;;;;;;;;;;;;2065959;28;44389;-62
2020/12/31 04:39:46;;;;;;;;;;;;;;;;;;2066008;28;44246;-62
2020/12/31 04:40:47;;;;;;;;;;;;;;;;;;2066245;28;42980;-62
2020/12/31 04:41:48;;;;;;;;;;;;;;;;;;2065962;28;44598;-62
2020/12/31 04:42:52;;;;;;;;;;;;;;;;;;2066016;28;45611;-62
2020/12/31 04:43:54;;;;;;;;;;;;;;;;;;2065547;28;44392;-62
2020/12/31 04:44:55;;;;;;;;;;;;;;;;;;2065592;28;43107;-62
2020/12/31 04:45:56;;;;;;;;;;;;;;;;;;2066153;28;46143;-62
2020/12/31 04:46:57;;;;;;;;;;;;;;;;;;2065111;28;44307;-62
2020/12/31 04:48:17;;;;;;;;;;;;;;;;;;2064216;28;44468;-62
2020/12/31 04:49:26;;;;;;;;;;;;;;;;;;2064360;28;45316;-62
2020/12/31 04:50:31;;;;;;;;;;;;;;;;;;2057956;28;45386;-63
2020/12/31 04:51:35;;;;;;;;;;;;;;;;;;2064919;28;43454;-63
2020/12/31 04:52:36;;;;;;;;;;;;;;;;;;2065445;28;43143;-63
2020/12/31 04:53:38;;;;;;;;;;;;;;;;;;2065935;28;43341;-63
2020/12/31 04:54:39;;;;;;;;;;;;;;;;;;2066087;28;44229;-63
2020/12/31 04:55:43;;;;;;;;;;;;;;;;;;2065798;28;46538;-63
2020/12/31 04:56:46;;;;;;;;;;;;;;;;;;2065992;28;45294;-63
2020/12/31 04:57:47;;;;;;;;;;;;;;;;;;2066131;28;42997;-63
2020/12/31 04:58:48;;;;;;;;;;;;;;;;;;2066647;28;44597;-63
2020/12/31 04:59:49;;;;;;;;;;;;;;;;;;2064910;28;43504;-62
2020/12/31 05:00:50;;;;;;;;;;;;;;;;;;2065488;28;46154;-63
2020/12/31 05:01:51;;;;;;;;;;;;;;;;;;2065693;28;46152;-62
2020/12/31 05:02:52;;;;;;;;;;;;;;;;;;2065907;28;44770;-62
2020/12/31 05:03:53;;;;;;;;;;;;;;;;;;2065122;28;44858;-62
2020/12/31 05:04:54;;;;;;;;;;;;;;;;;;2065174;28;44586;-62
2020/12/31 05:05:56;;;;;;;;;;;;;;;;;;2065718;28;46164;-62
2020/12/31 05:06:58;;;;;;;;;;;;;;;;;;2065969;28;46162;-62
2020/12/31 05:08:00;;;;;;;;;;;;;;;;;;2065231;28;44855;-62
2020/12/31 05:09:14;;;;;;;;;;;;;;;;;;2065356;28;44885;-62
2020/12/31 05:10:15;;;;;;;;;;;;;;;;;;2065346;28;44874;-62
2020/12/31 05:11:17;;;;;;;;;;;;;;;;;;2065958;28;46062;-62
2020/12/31 05:12:27;;;;;;;;;;;;;;;;;;2064872;28;44867;-62
2020/12/31 05:13:28;;;;;;;;;;;;;;;;;;2065948;28;45418;-62
2020/12/31 05:14:33;;;;;;;;;;;;;;;;;;2065643;28;44038;-62
2020/12/31 05:15:38;;;;;;;;;;;;;;;;;;2066130;28;46091;-62
2020/12/31 05:16:39;;;;;;;;;;;;;;;;;;2066068;28;44800;-62
2020/12/31 05:17:40;;;;;;;;;;;;;;;;;;2065954;28;44814;-63
2020/12/31 05:18:41;;;;;;;;;;;;;;;;;;2065287;28;43059;-62
2020/12/31 05:19:43;;;;;;;;;;;;;;;;;;2065960;28;47216;-62
2020/12/31 05:21:06;;;;;;;;;;;;;;;;;;2066634;28;44899;-62
2020/12/31 05:22:13;;;;;;;;;;;;;;;;;;2064554;28;44315;-63
2020/12/31 05:23:15;;;;;;;;;;;;;;;;;;2065114;28;42006;-63
2020/12/31 05:24:16;;;;;;;;;;;;;;;;;;2066059;28;44103;-63
2020/12/31 05:25:33;;;;;;;;;;;;;;;;;;2065983;28;44273;-62
2020/12/31 05:26:34;;;;;;;;;;;;;;;;;;2064982;28;43988;-63
2020/12/31 05:27:35;;;;;;;;;;;;;;;;;;2065145;28;44190;-62
2020/12/31 05:28:37;;;;;;;;;;;;;;;;;;2065057;28;42450;-62
2020/12/31 05:29:38;;;;;;;;;;;;;;;;;;2065755;28;44296;-63
2020/12/31 05:30:40;;;;;;;;;;;;;;;;;;2066015;28;43001;-62
2020/12/31 05:31:51;;;;;;;;;;;;;;;;;;2065416;28;46228;-63
2020/12/31 05:32:52;;;;;;;;;;;;;;;;;;2064950;28;45165;-63
2020/12/31 05:33:53;;;;;;;;;;;;;;;;;;2064360;28;45583;-62
2020/12/31 05:34:54;;;;;;;;;;;;;;;;;;2063672;28;44135;-63
2020/12/31 05:36:17;;;;;;;;;;;;;;;;;;2063765;28;45705;-63
2020/12/31 05:37:19;;;;;;;;;;;;;;;;;;2064010;28;45487;-63
2020/12/31 05:38:21;;;;;;;;;;;;;;;;;;2064560;28;41975;-62
2020/12/31 05:39:23;;;;;;;;;;;;;;;;;;2063983;28;44490;-64
2020/12/31 05:40:24;;;;;;;;;;;;;;;;;;2064479;28;45348;-64
2020/12/31 05:41:25;;;;;;;;;;;;;;;;;;2063432;28;45937;-63
2020/12/31 05:42:27;;;;;;;;;;;;;;;;;;2063883;28;44329;-63
2020/12/31 05:43:29;;;;;;;;;;;;;;;;;;2064350;28;46215;-62
2020/12/31 05:44:30;;;;;;;;;;;;;;;;;;2063737;28;44394;-64
2020/12/31 05:45:31;;;;;;;;;;;;;;;;;;2063469;28;44322;-62
2020/12/31 05:46:33;;;;;;;;;;;;;;;;;;2063843;28;44097;-62
2020/12/31 05:47:34;;;;;;;;;;;;;;;;;;2063176;28;44308;-64
2020/12/31 05:48:36;;;;;;;;;;;;;;;;;;2063734;28;45271;-63
2020/12/31 05:49:37;;;;;;;;;;;;;;;;;;2063339;28;44392;-63
2020/12/31 05:50:40;;;;;;;;;;;;;;;;;;2064264;28;45603;-63
2020/12/31 05:51:41;;;;;;;;;;;;;;;;;;2063432;28;44373;-63
2020/12/31 05:52:42;;;;;;;;;;;;;;;;;;2063771;28;43965;-63
2020/12/31 05:53:44;;;;;;;;;;;;;;;;;;2063598;28;44088;-63
2020/12/31 05:54:48;;;;;;;;;;;;;;;;;;2064413;28;44210;-63
2020/12/31 05:55:53;;;;;;;;;;;;;;;;;;2064244;28;42583;-63
2020/12/31 05:57:00;;;;;;;;;;;;;;;;;;2064343;28;43016;-62
2020/12/31 05:58:08;;;;;;;;;;;;;;;;;;2063275;28;44063;-62
2020/12/31 05:59:12;;;;;;;;;;;;;;;;;;2063428;28;44383;-62
2020/12/31 06:00:17;;;;;;;;;;;;;;;;;;2063389;28;45685;-62
2020/12/31 06:01:18;;;;;;;;;;;;;;;;;;2064309;28;42782;-62
2020/12/31 06:02:23;;;;;;;;;;;;;;;;;;2064048;28;43727;-62
2020/12/31 06:03:34;;;;;;;;;;;;;;;;;;2064157;28;47675;-62
2020/12/31 06:04:49;;;;;;;;;;;;;;;;;;2064058;28;44093;-63
2020/12/31 06:06:03;;;;;;;;;;;;;;;;;;2064517;28;44296;-62
2020/12/31 06:07:04;;;;;;;;;;;;;;;;;;2064049;28;44725;-63
2020/12/31 06:08:05;;;;;;;;;;;;;;;;;;2063853;28;44763;-63
2020/12/31 06:09:16;;;;;;;;;;;;;;;;;;2063823;28;43446;-62
2020/12/31 06:10:23;;;;;;;;;;;;;;;;;;2064170;28;44904;-63
2020/12/31 06:11:34;;;;;;;;;;;;;;;;;;2063595;28;44772;-62
2020/12/31 06:12:39;;;;;;;;;;;;;;;;;;2063798;28;43168;-62
2020/12/31 06:13:47;;;;;;;;;;;;;;;;;;2064079;28;46059;-62
2020/12/31 06:14:54;;;;;;;;;;;;;;;;;;2063882;28;43573;-62
2020/12/31 06:16:01;;;;;;;;;;;;;;;;;;2063553;28;46150;-62
2020/12/31 06:17:04;;;;;;;;;;;;;;;;;;2063472;28;46185;-62
2020/12/31 06:18:05;;;;;;;;;;;;;;;;;;2063946;28;44554;-62
2020/12/31 06:19:25;;;;;;;;;;;;;;;;;;2063712;28;46153;-62
2020/12/31 06:20:27;;;;;;;;;;;;;;;;;;2064225;28;47133;-62
2020/12/31 06:21:41;;;;;;;;;;;;;;;;;;2063937;28;46073;-64
2020/12/31 06:22:48;;;;;;;;;;;;;;;;;;2064011;28;46040;-64
2020/12/31 06:23:50;;;;;;;;;;;;;;;;;;2062968;28;44873;-64
2020/12/31 06:24:57;;;;;;;;;;;;;;;;;;2063477;28;46196;-63
2020/12/31 06:25:59;;;;;;;;;;;;;;;;;;2064075;28;44884;-63
2020/12/31 06:27:03;;;;;;;;;;;;;;;;;;2055787;28;45765;-62
2020/12/31 06:28:04;;;;;;;;;;;;;;;;;;2064635;28;44863;-62
2020/12/31 06:29:06;;;;;;;;;;;;;;;;;;2064649;28;44683;-63
2020/12/31 06:30:07;;;;;;;;;;;;;;;;;;2065299;28;44857;-63
2020/12/31 06:31:08;;;;;;;;;;;;;;;;;;2058115;28;45584;-63
2020/12/31 06:32:25;;;;;;;;;;;;;;;;;;2065574;28;44201;-63
2020/12/31 06:33:28;;;;;;;;;;;;;;;;;;2065445;28;44322;-63
2020/12/31 06:34:29;;;;;;;;;;;;;;;;;;2063799;28;44151;-63
2020/12/31 06:35:32;;;;;;;;;;;;;;;;;;2055312;28;44164;-64
2020/12/31 06:36:35;;;;;;;;;;;;;;;;;;2056019;28;45297;-64
2020/12/31 06:37:37;;;;;;;;;;;;;;;;;;2062714;28;44394;-64
2020/12/31 06:38:42;;;;;;;;;;;;;;;;;;2055972;28;45397;-63
2020/12/31 06:39:43;;;;;;;;;;;;;;;;;;2063247;28;44306;-63
2020/12/31 06:40:44;;;;;;;;;;;;;;;;;;2065007;28;44446;-64
2020/12/31 06:41:52;;;;;;;;;;;;;;;;;;2057405;28;42503;-63
2020/12/31 06:43:00;;;;;;;;;;;;;;;;;;2057078;28;45670;-64
2020/12/31 06:44:12;;;;;;;;;;;;;;;;;;2056380;28;44205;-63
2020/12/31 06:45:52;;;;;;;;;;;;;;;;;;2057182;28;45503;-64
2020/12/31 06:46:53;;;;;;;;;;;;;;;;;;2090467;28;43883;-64
2020/12/31 06:47:54;;;;;;;;;;;;;;;;;;2089854;28;46704;-64
2020/12/31 06:48:55;;;;;;;;;;;;;;;;;;2090123;28;45379;-64
2020/12/31 06:50:01;;;;;;;;;;;;;;;;;;2089820;28;42432;-64
2020/12/31 06:51:04;;;;;;;;;;;;;;;;;;2089830;28;44117;-64
2020/12/31 06:52:25;;;;;;;;;;;;;;;;;;2079688;28;46538;-64
2020/12/31 06:53:27;;;;;;;;;;;;;;;;;;2057120;28;44135;-64
2020/12/31 06:54:28;;;;;;;;;;;;;;;;;;2057400;28;41076;-62
2020/12/31 06:55:29;;;;;;;;;;;;;;;;;;2057276;28;44263;-64
2020/12/31 06:56:44;;;;;;;;;;;;;;;;;;2056619;28;44450;-63
2020/12/31 06:57:45;;;;;;;;;;;;;;;;;;2056759;28;45780;-64
2020/12/31 06:58:46;;;;;;;;;;;;;;;;;;2056524;28;44296;-64
2020/12/31 06:59:47;;;;;;;;;;;;;;;;;;2056516;28;42992;-64
2020/12/31 07:00:48;;;;;;;;;;;;;;;;;;2061311;28;44269;-64
2020/12/31 07:01:49;;;;;;;;;;;;;;;;;;2065617;28;44375;-64
2020/12/31 07:02:50;;;;;;;;;;;;;;;;;;2065386;28;45620;-63
2020/12/31 07:03:51;;;;;;;;;;;;;;;;;;2065637;28;43112;-63
2020/12/31 07:04:52;;;;;;;;;;;;;;;;;;2065064;28;42584;-63